createdAt,value
2023-03-26T00:02:13.212Z,99.90
2023-03-26T00:04:42.630Z,99.90
2023-03-26T00:07:10.598Z,99.90
2023-03-26T00:09:38.011Z,99.90
2023-03-26T00:12:04.857Z,99.90
2023-03-26T00:14:32.602Z,99.90
2023-03-26T00:16:59.382Z,99.90
2023-03-26T00:19:26.158Z,99.90
2023-03-26T00:21:53.337Z,99.90
2023-03-26T00:24:20.129Z,99.90
2023-03-26T00:26:53.480Z,99.90
2023-03-26T00:29:20.654Z,99.90
2023-03-26T00:31:47.467Z,99.90
2023-03-26T00:34:15.972Z,99.90
2023-03-26T00:36:44.028Z,99.90
2023-03-26T00:39:10.894Z,99.90
2023-03-26T00:41:43.374Z,99.90
2023-03-26T00:44:10.543Z,99.90
2023-03-26T00:46:37.473Z,99.90
2023-03-26T00:49:04.991Z,99.90
2023-03-26T00:51:31.977Z,99.90
2023-03-26T00:53:58.702Z,99.90
2023-03-26T00:56:25.604Z,99.90
2023-03-26T00:58:52.342Z,99.90
2023-03-26T01:01:27.946Z,99.90
2023-03-26T01:04:07.409Z,99.90
2023-03-26T01:06:36.898Z,99.90
2023-03-26T01:09:16.211Z,99.90
2023-03-26T01:11:43.091Z,99.90
2023-03-26T01:14:18.990Z,99.90
2023-03-26T01:16:52.568Z,99.90
2023-03-26T01:19:29.756Z,99.90
2023-03-26T01:21:57.783Z,99.90
2023-03-26T01:24:24.602Z,99.90
2023-03-26T01:27:04.415Z,99.90
2023-03-26T01:29:33.072Z,99.90
2023-03-26T01:32:22.334Z,99.90
2023-03-26T01:34:59.109Z,99.90
2023-03-26T01:37:35.100Z,99.90
2023-03-26T01:40:14.292Z,99.90
2023-03-26T01:42:44.363Z,99.90
2023-03-26T01:45:16.829Z,99.90
2023-03-26T01:47:43.776Z,99.90
2023-03-26T01:50:11.185Z,99.90
2023-03-26T01:52:38.153Z,99.90
2023-03-26T01:55:05.234Z,99.90
2023-03-26T01:57:36.852Z,99.90
2023-03-26T02:00:18.636Z,99.90
2023-03-26T02:03:17.722Z,99.90
2023-03-26T02:05:55.164Z,99.90
2023-03-26T02:08:35.950Z,99.90
2023-03-26T02:11:13.139Z,99.90
2023-03-26T02:13:41.237Z,99.90
2023-03-26T02:16:09.802Z,99.90
2023-03-26T02:18:39.057Z,99.90
2023-03-26T02:21:10.979Z,99.90
2023-03-26T02:23:38.419Z,99.90
2023-03-26T02:26:09.475Z,99.90
2023-03-26T02:28:36.844Z,99.90
2023-03-26T02:31:04.269Z,99.90
2023-03-26T02:33:31.382Z,99.90
2023-03-26T02:36:04.639Z,99.90
2023-03-26T02:38:35.059Z,99.90
2023-03-26T02:41:02.502Z,99.90
2023-03-26T02:43:29.317Z,99.90
2023-03-26T02:45:56.472Z,99.90
2023-03-26T02:48:23.648Z,99.90
2023-03-26T02:50:54.144Z,99.90
2023-03-26T02:53:29.771Z,99.90
2023-03-26T02:55:57.524Z,99.90
2023-03-26T02:58:26.450Z,99.90
2023-03-26T03:00:55.163Z,99.90
2023-03-26T03:03:25.923Z,99.90
2023-03-26T03:05:53.616Z,99.90
2023-03-26T03:08:28.246Z,99.90
2023-03-26T03:10:59.646Z,99.90
2023-03-26T03:13:26.828Z,99.90
2023-03-26T03:15:54.072Z,99.90
2023-03-26T03:18:21.122Z,99.90
2023-03-26T03:20:48.009Z,99.90
2023-03-26T03:23:14.880Z,99.90
2023-03-26T03:25:41.854Z,99.90
2023-03-26T03:28:08.848Z,99.90
2023-03-26T03:30:35.923Z,99.90
2023-03-26T03:33:03.016Z,99.90
2023-03-26T03:35:30.263Z,99.90
2023-03-26T03:37:57.794Z,99.90
2023-03-26T03:40:24.819Z,99.90
2023-03-26T03:42:51.764Z,99.90
2023-03-26T03:45:18.805Z,99.90
2023-03-26T03:47:45.973Z,99.90
2023-03-26T03:50:12.776Z,99.90
2023-03-26T03:52:39.596Z,99.90
2023-03-26T03:55:06.691Z,99.90
2023-03-26T03:57:34.634Z,99.90
2023-03-26T04:00:01.654Z,99.90
2023-03-26T04:02:34.592Z,99.90
2023-03-26T04:05:02.614Z,99.90
2023-03-26T04:07:32.387Z,99.90
2023-03-26T04:10:06.014Z,99.90
2023-03-26T04:12:32.798Z,99.90
2023-03-26T04:14:59.924Z,99.90
2023-03-26T04:17:26.866Z,99.90
2023-03-26T04:19:55.072Z,99.90
2023-03-26T04:22:22.269Z,99.90
2023-03-26T04:24:49.822Z,99.90
2023-03-26T04:27:19.656Z,99.90
2023-03-26T04:29:49.676Z,99.90
2023-03-26T04:32:26.512Z,99.90
2023-03-26T04:34:53.765Z,99.90
2023-03-26T04:37:26.611Z,99.90
2023-03-26T04:39:55.107Z,99.90
2023-03-26T04:42:22.377Z,99.90
2023-03-26T04:44:50.914Z,99.90
2023-03-26T04:47:20.586Z,99.90
2023-03-26T04:49:48.635Z,99.90
2023-03-26T04:52:15.642Z,99.90
2023-03-26T04:54:44.491Z,99.90
2023-03-26T04:57:26.333Z,99.90
2023-03-26T04:59:53.233Z,99.90
2023-03-26T05:02:20.254Z,99.90
2023-03-26T05:04:47.033Z,99.90
2023-03-26T05:07:17.882Z,99.90
2023-03-26T05:09:44.657Z,99.90
2023-03-26T05:12:11.534Z,99.90
2023-03-26T05:14:38.322Z,99.90
2023-03-26T05:17:10.833Z,99.90
2023-03-26T05:19:39.028Z,99.90
2023-03-26T05:22:05.912Z,99.90
2023-03-26T05:24:32.733Z,99.90
2023-03-26T05:26:59.562Z,99.90
2023-03-26T05:29:27.021Z,99.90
2023-03-26T05:31:53.732Z,99.90
2023-03-26T05:34:20.878Z,99.90
2023-03-26T05:36:48.615Z,99.90
2023-03-26T05:39:15.458Z,99.90
2023-03-26T05:41:42.880Z,99.90
2023-03-26T05:44:09.670Z,99.90
2023-03-26T05:46:36.442Z,99.90
2023-03-26T05:49:03.301Z,99.10
2023-03-26T05:51:30.105Z,96.80
2023-03-26T05:53:56.888Z,94.70
2023-03-26T05:56:23.701Z,94.90
2023-03-26T05:58:51.984Z,96.30
2023-03-26T06:01:19.759Z,97.80
2023-03-26T06:03:47.289Z,99.30
2023-03-26T06:06:16.217Z,99.60
2023-03-26T06:08:43.941Z,99.30
2023-03-26T06:11:12.680Z,99.50
2023-03-26T06:13:39.952Z,99.10
2023-03-26T06:16:07.404Z,93.70
2023-03-26T06:18:34.203Z,86.70
2023-03-26T06:21:01.284Z,76.80
2023-03-26T06:23:28.088Z,72.40
2023-03-26T06:25:55.361Z,67.20
2023-03-26T06:28:22.210Z,61.20
2023-03-26T06:30:49.286Z,59.50
2023-03-26T06:33:16.068Z,57.40
2023-03-26T06:35:44.185Z,57.00
2023-03-26T06:38:11.243Z,57.40
2023-03-26T06:40:38.115Z,57.70
2023-03-26T06:43:08.557Z,57.80
2023-03-26T06:45:37.562Z,57.20
2023-03-26T06:48:04.956Z,56.90
2023-03-26T06:50:32.869Z,57.20
2023-03-26T06:52:59.905Z,57.40
2023-03-26T06:55:26.754Z,54.40
2023-03-26T06:57:54.231Z,52.10
2023-03-26T07:00:21.165Z,50.70
2023-03-26T07:02:48.220Z,49.90
2023-03-26T07:05:15.614Z,47.70
2023-03-26T07:07:46.230Z,45.40
2023-03-26T07:10:13.705Z,46.00
2023-03-26T07:12:42.479Z,48.40
2023-03-26T07:15:10.479Z,49.90
2023-03-26T07:17:37.642Z,49.40
2023-03-26T07:20:05.845Z,49.50
2023-03-26T07:22:32.958Z,48.70
2023-03-26T07:25:00.317Z,46.50
2023-03-26T07:27:56.203Z,46.10
2023-03-26T07:30:57.268Z,47.10
2023-03-26T07:33:29.510Z,45.70
2023-03-26T07:36:23.895Z,43.70
2023-03-26T07:39:08.904Z,42.20
2023-03-26T07:41:43.984Z,40.80
2023-03-26T07:44:49.667Z,40.70
2023-03-26T07:47:35.108Z,38.30
2023-03-26T07:50:03.015Z,37.90
2023-03-26T07:52:30.213Z,38.80
2023-03-26T07:54:57.105Z,39.00
2023-03-26T07:57:38.635Z,36.90
2023-03-26T08:00:14.226Z,37.80
2023-03-26T08:02:47.212Z,38.30
2023-03-26T08:05:19.763Z,36.90
2023-03-26T08:08:25.713Z,37.70
2023-03-26T08:11:10.527Z,38.20
2023-03-26T08:13:45.998Z,36.20
2023-03-26T08:16:19.382Z,37.30
2023-03-26T08:18:55.992Z,35.80
2023-03-26T08:21:45.152Z,35.10
2023-03-26T08:24:32.090Z,35.90
2023-03-26T08:27:13.442Z,35.00
2023-03-26T08:29:59.626Z,34.80
2023-03-26T08:32:26.556Z,35.10
2023-03-26T08:34:53.364Z,36.00
2023-03-26T08:37:20.212Z,36.90
2023-03-26T08:39:47.089Z,38.80
2023-03-26T08:42:20.354Z,40.20
2023-03-26T08:45:06.003Z,40.90
2023-03-26T08:48:03.875Z,40.90
2023-03-26T08:50:56.914Z,44.20
2023-03-26T08:53:35.964Z,44.50
2023-03-26T08:56:19.600Z,44.50
2023-03-26T08:59:13.879Z,45.30
2023-03-26T09:02:16.488Z,42.00
2023-03-26T09:05:17.102Z,38.10
2023-03-26T09:07:58.695Z,37.30
2023-03-26T09:10:25.461Z,37.00
2023-03-26T09:13:21.340Z,37.90
2023-03-26T09:16:06.694Z,37.40
2023-03-26T09:19:01.339Z,35.50
2023-03-26T09:21:32.644Z,34.40
2023-03-26T09:24:27.674Z,35.60
2023-03-26T09:27:26.555Z,33.70
2023-03-26T09:29:53.357Z,34.20
2023-03-26T09:32:58.080Z,34.90
2023-03-26T09:35:54.141Z,35.60
2023-03-26T09:38:24.128Z,34.00
2023-03-26T09:41:02.411Z,35.20
2023-03-26T09:43:54.448Z,35.50
2023-03-26T09:46:33.548Z,35.10
2023-03-26T09:49:37.763Z,32.60
2023-03-26T09:52:22.677Z,33.50
2023-03-26T09:55:22.749Z,35.10
2023-03-26T09:58:27.816Z,33.50
2023-03-26T10:01:05.928Z,33.90
2023-03-26T10:03:59.275Z,34.10
2023-03-26T10:06:34.915Z,35.50
2023-03-26T10:09:26.286Z,34.70
2023-03-26T10:12:09.229Z,34.50
2023-03-26T10:14:58.099Z,32.40
2023-03-26T10:17:33.669Z,33.50
2023-03-26T10:20:31.684Z,33.30
2023-03-26T10:23:23.119Z,33.60
2023-03-26T10:25:56.376Z,35.10
2023-03-26T10:28:26.410Z,33.60
2023-03-26T10:30:53.341Z,34.80
2023-03-26T10:33:43.368Z,36.00
2023-03-26T10:36:19.435Z,34.70
2023-03-26T10:38:52.110Z,33.40
2023-03-26T10:41:33.890Z,34.20
2023-03-26T10:44:08.812Z,33.00
2023-03-26T10:46:36.081Z,36.70
2023-03-26T10:49:16.785Z,37.80
2023-03-26T10:51:49.442Z,38.50
2023-03-26T10:54:25.972Z,38.30
2023-03-26T10:56:52.916Z,39.30
2023-03-26T10:59:19.801Z,39.30
2023-03-26T11:02:10.545Z,39.10
2023-03-26T11:05:09.463Z,39.50
2023-03-26T11:07:44.281Z,39.90
2023-03-26T11:10:16.531Z,40.60
2023-03-26T11:12:58.716Z,42.60
2023-03-26T11:15:33.476Z,42.40
2023-03-26T11:18:20.753Z,43.00
2023-03-26T11:21:19.282Z,43.40
2023-03-26T11:24:04.501Z,43.00
2023-03-26T11:26:52.889Z,43.40
2023-03-26T11:29:38.091Z,43.10
2023-03-26T11:32:24.104Z,44.10
2023-03-26T11:35:41.009Z,43.90
2023-03-26T11:38:17.291Z,43.60
2023-03-26T11:40:48.322Z,44.20
2023-03-26T11:43:17.203Z,45.00
2023-03-26T11:45:46.131Z,44.40
2023-03-26T11:48:17.108Z,45.00
2023-03-26T11:50:56.610Z,43.40
2023-03-26T11:53:26.252Z,44.00
2023-03-26T11:56:09.965Z,44.10
2023-03-26T11:59:01.543Z,43.60
2023-03-26T12:01:31.089Z,43.70
2023-03-26T12:04:14.698Z,43.90
2023-03-26T12:07:25.138Z,43.00
2023-03-26T12:10:18.352Z,43.70
2023-03-26T12:12:46.572Z,42.10
2023-03-26T12:15:20.275Z,42.90
2023-03-26T12:17:48.391Z,42.00
2023-03-26T12:20:24.905Z,41.90
2023-03-26T12:22:53.167Z,42.60
2023-03-26T12:25:21.616Z,42.60
2023-03-26T12:27:52.858Z,42.30
2023-03-26T12:30:22.148Z,42.10
2023-03-26T12:32:50.087Z,41.50
2023-03-26T12:35:26.884Z,41.90
2023-03-26T12:37:54.667Z,42.40
2023-03-26T12:40:32.605Z,43.10
2023-03-26T12:44:46.700Z,42.70
2023-03-26T12:47:55.076Z,43.50
2023-03-26T12:48:41.238Z,43.30
2023-03-26T12:51:20.314Z,42.70
2023-03-26T12:54:03.211Z,42.90
2023-03-26T12:57:11.911Z,42.40
2023-03-26T13:00:01.736Z,41.40
2023-03-26T13:02:53.663Z,41.80
2023-03-26T13:05:26.553Z,41.40
2023-03-26T13:08:17.036Z,41.80
2023-03-26T13:11:05.251Z,40.80
2023-03-26T13:13:40.970Z,41.50
2023-03-26T13:16:19.185Z,41.10
2023-03-26T13:19:18.006Z,40.50
2023-03-26T13:22:09.667Z,41.20
2023-03-26T13:24:58.460Z,42.30
2023-03-26T13:27:44.189Z,41.00
2023-03-26T13:30:28.704Z,40.70
2023-03-26T13:32:58.859Z,41.20
2023-03-26T13:35:31.875Z,41.50
2023-03-26T13:38:01.856Z,38.40
2023-03-26T13:40:50.195Z,39.50
2023-03-26T13:43:49.195Z,37.40
2023-03-26T13:46:35.518Z,39.90
2023-03-26T13:49:08.051Z,43.20
2023-03-26T13:51:49.810Z,43.70
2023-03-26T13:54:24.160Z,43.90
2023-03-26T13:56:55.193Z,43.40
2023-03-26T13:59:55.778Z,39.10
2023-03-26T14:02:38.402Z,36.40
2023-03-26T14:05:24.204Z,35.30
2023-03-26T14:07:58.382Z,35.70
2023-03-26T14:10:28.879Z,35.20
2023-03-26T14:13:15.333Z,35.60
2023-03-26T14:15:55.877Z,35.70
2023-03-26T14:18:22.548Z,35.40
2023-03-26T14:20:58.542Z,35.20
2023-03-26T14:23:34.113Z,34.60
2023-03-26T14:26:01.172Z,36.50
2023-03-26T14:28:34.051Z,35.30
2023-03-26T14:31:32.613Z,35.20
2023-03-26T14:34:23.566Z,35.70
2023-03-26T14:37:27.215Z,36.10
2023-03-26T14:40:14.951Z,36.10
2023-03-26T14:42:46.652Z,36.40
2023-03-26T14:45:34.790Z,36.60
2023-03-26T14:48:22.628Z,36.40
2023-03-26T14:51:33.614Z,36.70
2023-03-26T14:54:11.966Z,37.10
2023-03-26T14:57:00.930Z,36.70
2023-03-26T15:00:02.705Z,37.10
2023-03-26T15:03:00.545Z,37.10
2023-03-26T15:05:46.611Z,37.70
2023-03-26T15:08:34.243Z,36.70
2023-03-26T15:11:10.714Z,36.20
2023-03-26T15:13:59.624Z,36.40
2023-03-26T15:16:47.956Z,36.70
2023-03-26T15:19:41.294Z,37.20
2023-03-26T15:22:17.165Z,37.40
2023-03-26T15:25:16.160Z,36.80
2023-03-26T15:28:08.206Z,36.70
2023-03-26T15:31:10.754Z,37.10
2023-03-26T15:33:57.203Z,37.10
2023-03-26T15:36:41.088Z,37.40
2023-03-26T15:39:19.751Z,36.90
2023-03-26T15:42:04.112Z,37.10
2023-03-26T15:44:53.128Z,37.80
2023-03-26T15:47:42.689Z,38.20
2023-03-26T15:50:44.433Z,38.60
2023-03-26T15:53:58.701Z,38.80
2023-03-26T15:56:49.089Z,38.90
2023-03-26T16:00:00.697Z,39.30
2023-03-26T16:02:40.252Z,39.90
2023-03-26T16:05:29.122Z,38.90
2023-03-26T16:08:11.301Z,39.20
2023-03-26T16:10:47.185Z,39.10
2023-03-26T16:13:17.628Z,38.90
2023-03-26T16:15:57.089Z,39.00
2023-03-26T16:18:31.560Z,39.50
2023-03-26T16:21:32.369Z,38.80
2023-03-26T16:24:02.550Z,38.90
2023-03-26T16:26:44.634Z,38.80
2023-03-26T16:29:14.477Z,38.80
2023-03-26T16:32:10.935Z,39.20
2023-03-26T16:35:18.413Z,38.70
2023-03-26T16:37:50.608Z,38.90
2023-03-26T16:40:17.496Z,39.80
2023-03-26T16:43:18.350Z,39.70
2023-03-26T16:46:20.674Z,39.90
2023-03-26T16:49:10.761Z,40.10
2023-03-26T16:52:12.961Z,39.80
2023-03-26T16:54:53.531Z,39.90
2023-03-26T16:57:28.481Z,39.50
2023-03-26T17:00:08.233Z,39.20
2023-03-26T17:03:00.807Z,39.50
2023-03-26T17:05:41.909Z,39.70
2023-03-26T17:08:19.251Z,39.10
2023-03-26T17:11:36.269Z,39.20
2023-03-26T17:14:21.050Z,39.30
2023-03-26T17:17:03.093Z,39.50
2023-03-26T17:19:55.303Z,39.60
2023-03-26T17:22:56.307Z,40.10
2023-03-26T17:25:52.058Z,40.20
2023-03-26T17:28:24.972Z,40.10
2023-03-26T17:31:01.954Z,40.50
2023-03-26T17:33:30.960Z,40.90
2023-03-26T17:36:13.074Z,40.90
2023-03-26T17:38:39.894Z,41.40
2023-03-26T17:41:12.294Z,40.80
2023-03-26T17:43:45.659Z,41.10
2023-03-26T17:46:38.038Z,41.20
2023-03-26T17:49:26.979Z,41.00
2023-03-26T17:51:59.550Z,41.00
2023-03-26T17:54:31.607Z,41.30
2023-03-26T17:57:02.561Z,41.20
2023-03-26T17:59:29.404Z,41.00
2023-03-26T18:02:00.948Z,41.20
2023-03-26T18:04:38.071Z,41.00
2023-03-26T18:07:35.537Z,40.90
2023-03-26T18:10:43.625Z,40.60
2023-03-26T18:13:32.030Z,40.70
2023-03-26T18:16:16.315Z,40.80
2023-03-26T18:18:50.214Z,40.40
2023-03-26T18:21:29.334Z,40.30
2023-03-26T18:23:59.936Z,40.70
2023-03-26T18:26:37.928Z,40.60
2023-03-26T18:29:16.026Z,40.20
2023-03-26T18:31:48.518Z,40.90
2023-03-26T18:34:19.016Z,41.10
2023-03-26T18:36:47.187Z,40.40
2023-03-26T18:39:14.023Z,40.50
2023-03-26T18:41:42.027Z,40.80
2023-03-26T18:44:14.714Z,40.80
2023-03-26T18:46:41.977Z,41.10
2023-03-26T18:49:12.037Z,41.80
2023-03-26T18:51:50.106Z,40.90
2023-03-26T18:54:21.576Z,41.50
2023-03-26T18:56:48.525Z,42.00
2023-03-26T18:59:27.972Z,42.50
2023-03-26T19:02:07.289Z,42.90
2023-03-26T19:04:34.913Z,43.80
2023-03-26T19:07:01.686Z,43.90
2023-03-26T19:09:32.220Z,43.30
2023-03-26T19:12:08.442Z,42.50
2023-03-26T19:14:56.261Z,42.50
2023-03-26T19:17:24.402Z,42.50
2023-03-26T19:19:51.393Z,42.30
2023-03-26T19:22:19.135Z,43.20
2023-03-26T19:24:46.273Z,43.70
2023-03-26T19:27:13.169Z,43.50
2023-03-26T19:29:40.023Z,43.80
2023-03-26T19:32:27.725Z,44.60
2023-03-26T19:34:54.663Z,44.10
2023-03-26T19:37:26.471Z,44.60
2023-03-26T19:39:54.421Z,44.20
2023-03-26T19:42:26.883Z,44.30
2023-03-26T19:45:30.957Z,44.50
2023-03-26T19:48:11.631Z,45.10
2023-03-26T19:50:42.468Z,46.20
2023-03-26T19:53:21.851Z,46.80
2023-03-26T19:55:58.814Z,47.50
2023-03-26T19:58:26.834Z,46.30
2023-03-26T20:00:56.275Z,47.10
2023-03-26T20:03:44.444Z,47.90
2023-03-26T20:06:12.955Z,47.50
2023-03-26T20:08:40.717Z,47.40
2023-03-26T20:11:14.473Z,47.20
2023-03-26T20:13:41.401Z,46.90
2023-03-26T20:16:26.055Z,46.50
2023-03-26T20:18:53.695Z,46.90
2023-03-26T20:21:20.530Z,46.80
2023-03-26T20:23:47.966Z,47.30
2023-03-26T20:26:15.516Z,47.70
2023-03-26T20:28:48.095Z,46.70
2023-03-26T20:31:21.886Z,47.90
2023-03-26T20:33:49.767Z,47.80
2023-03-26T20:36:33.819Z,47.30
2023-03-26T20:39:08.180Z,47.00
2023-03-26T20:41:35.855Z,47.10
2023-03-26T20:44:04.884Z,47.50
2023-03-26T20:46:33.118Z,47.30
2023-03-26T20:49:00.121Z,47.30
2023-03-26T20:51:28.262Z,47.40
2023-03-26T20:53:55.822Z,47.30
2023-03-26T20:56:22.686Z,47.60
2023-03-26T20:58:54.772Z,47.90
2023-03-26T21:01:27.900Z,47.90
2023-03-26T21:03:54.837Z,48.10
2023-03-26T21:06:21.674Z,48.40
2023-03-26T21:08:48.568Z,48.40
2023-03-26T21:11:27.314Z,48.20
2023-03-26T21:14:15.183Z,48.50
2023-03-26T21:16:42.181Z,48.70
2023-03-26T21:19:10.325Z,49.00
2023-03-26T21:21:57.585Z,49.30
2023-03-26T21:24:43.376Z,49.50
2023-03-26T21:27:22.918Z,49.70
2023-03-26T21:29:49.954Z,49.50
2023-03-26T21:32:17.005Z,49.60
2023-03-26T21:34:55.593Z,49.70
2023-03-26T21:37:25.765Z,49.80
2023-03-26T21:39:52.881Z,49.90
2023-03-26T21:42:19.905Z,50.00
2023-03-26T21:44:46.935Z,49.60
2023-03-26T21:47:14.159Z,49.70
2023-03-26T21:49:41.292Z,49.80
2023-03-26T21:52:16.026Z,49.90
2023-03-26T21:54:43.410Z,49.30
2023-03-26T21:57:57.637Z,49.10
2023-03-26T22:00:30.804Z,48.90
2023-03-26T22:03:17.256Z,48.50
2023-03-26T22:06:12.805Z,49.00
2023-03-26T22:08:40.731Z,48.90
2023-03-26T22:11:08.618Z,48.80
2023-03-26T22:13:35.811Z,49.30
2023-03-26T22:16:02.627Z,49.30
2023-03-26T22:18:30.062Z,49.40
2023-03-26T22:20:57.929Z,49.60
2023-03-26T22:23:24.897Z,50.20
2023-03-26T22:25:52.174Z,50.00
2023-03-26T22:28:19.324Z,50.00
2023-03-26T22:30:46.604Z,50.60
2023-03-26T22:33:14.448Z,50.50
2023-03-26T22:35:44.667Z,50.80
2023-03-26T22:38:11.845Z,50.80
2023-03-26T22:40:39.049Z,51.00
2023-03-26T22:43:05.886Z,50.90
2023-03-26T22:45:32.662Z,51.20
2023-03-26T22:48:03.875Z,51.60
2023-03-26T22:50:31.651Z,51.70
2023-03-26T22:52:58.579Z,51.60
2023-03-26T22:55:28.791Z,51.60
2023-03-26T22:57:57.004Z,51.80
2023-03-26T23:00:23.941Z,52.10
2023-03-26T23:02:50.716Z,52.00
2023-03-26T23:05:17.796Z,52.10
2023-03-26T23:07:46.052Z,52.10
2023-03-26T23:10:13.066Z,52.30
2023-03-26T23:12:40.186Z,52.10
2023-03-26T23:15:08.008Z,52.10
2023-03-26T23:17:37.842Z,52.30
2023-03-26T23:20:17.259Z,52.30
2023-03-26T23:22:44.357Z,52.40
2023-03-26T23:25:11.455Z,52.70
2023-03-26T23:27:39.979Z,52.90
2023-03-26T23:30:07.435Z,53.10
2023-03-26T23:32:38.192Z,53.30
2023-03-26T23:35:06.096Z,53.10
2023-03-26T23:37:34.963Z,53.50
2023-03-26T23:40:02.060Z,53.70
2023-03-26T23:42:29.421Z,53.70
2023-03-26T23:44:57.181Z,53.70
2023-03-26T23:47:24.225Z,53.80
2023-03-26T23:49:51.063Z,53.70
2023-03-26T23:52:18.019Z,53.90
2023-03-26T23:54:45.499Z,54.00
2023-03-26T23:57:12.342Z,54.00
2023-03-26T23:59:41.462Z,54.20
